Portada
METAR-TAF:

METAR-TAF

Aeropuertos :

Gibraltar, Gibraltar

Aeropuerto de Gibraltar

latitud: 36-09N, longitud: 005-21W, altitud: 5 m

Observación

El informe se hizo hace 40 minutos, a las 19:50 UTC
Viento 4 kt del sur
Temperatura 20°C
Humedad 68%
Presión 1008 hPa
Visibilidad 10 km o más

METAR: LXGB 271950Z AUTO 17004KT 9999 // OVC090/// 20/14 Q1008

Hora: 22:30 (20:30 UTC)

Pronóstico

El informe se hizo hace 4 horas y 3 minutos, a las 16:27 UTC
Pronóstico válido del 27 a las 18 UTC al 27 a las 22 UTC
Viento 8 kt del sur
Visibilidad 10 km o más
Nubes dispersas a una altura de 4500 ft
Probabilidad 30% :
Temporalmente
del 27 a las 18 UTC al 27 a las 22 UTC
Visibilidad: 5000 m
Nubes dispersas a una altura de 1600 ft, Cumulonimbus.
chaparrones de lluvia
Probabilidad 40%
del 27 a las 20 UTC al 27 a las 22 UTC
Nubes dispersas a una altura de 800 ft

TAF: LXGB 271627Z 2718/2722 19008KT 9999 SCT045 PROB30 TEMPO 2718/2722 5000 SHRA SCT016CB PROB40 2720/2722 SCT008

Observaciones y pronósticos meteorológicos de más de 4000 aeropuertos (mensajes METAR y TAF).

Los puntos amarillos y rojos representan las estaciones disponibles.

Ponga el ratón en el punto deseado para ver el nombre de la estación.

Haga clic para ver las observaciones y los pronósticos meteorológicos.

Para cambiar el mapa : haga clic en los botones verdes con una cruz de color negro para hacer un zoom, en el botón verde con un guión para alejar o en las flechas verdes para mapas adyacentes.


METAR-TAF: